createdAt,value
2022-08-07T00:01:01.501Z,13.05
2022-08-07T00:06:29.569Z,12.99
2022-08-07T00:11:35.606Z,13.19
2022-08-07T00:16:49.908Z,12.93
2022-08-07T00:21:57.508Z,12.79
2022-08-07T00:27:07.158Z,12.78
2022-08-07T00:32:11.523Z,12.84
2022-08-07T00:37:16.545Z,12.71
2022-08-07T00:42:18.215Z,12.58
2022-08-07T00:48:08.884Z,12.49
2022-08-07T00:52:49.077Z,12.44
2022-08-07T00:57:55.872Z,12.35
2022-08-07T01:02:57.933Z,12.62
2022-08-07T01:07:59.856Z,12.44
2022-08-07T01:13:01.820Z,12.20
2022-08-07T01:18:05.489Z,12.00
2022-08-07T01:23:14.358Z,11.83
2022-08-07T01:28:17.050Z,12.10
2022-08-07T01:33:22.965Z,11.95
2022-08-07T01:38:29.306Z,11.95
2022-08-07T01:43:38.214Z,12.05
2022-08-07T01:48:46.592Z,12.06
2022-08-07T01:54:12.414Z,11.79
2022-08-07T01:59:36.174Z,11.42
2022-08-07T02:05:07.601Z,11.59
2022-08-07T02:10:22.894Z,11.65
2022-08-07T02:15:27.985Z,11.47
2022-08-07T02:20:32.146Z,11.34
2022-08-07T02:26:30.925Z,11.33
2022-08-07T02:31:10.325Z,11.35
2022-08-07T02:36:29.163Z,11.13
2022-08-07T02:41:39.373Z,11.49
2022-08-07T02:46:53.054Z,11.32
2022-08-07T02:51:59.020Z,11.12
2022-08-07T02:57:02.334Z,11.23
2022-08-07T03:02:09.810Z,11.00
2022-08-07T03:07:16.750Z,10.80
2022-08-07T03:12:31.021Z,10.74
2022-08-07T03:17:52.901Z,11.01
2022-08-07T03:22:58.694Z,10.83
2022-08-07T03:28:37.198Z,10.83
2022-08-07T03:33:25.821Z,10.92
2022-08-07T03:38:43.897Z,10.73
2022-08-07T03:43:57.008Z,10.66
2022-08-07T03:49:02.403Z,10.62
2022-08-07T03:54:36.154Z,10.91
2022-08-07T03:59:32.418Z,10.78
2022-08-07T04:04:35.052Z,10.60
2022-08-07T04:09:45.245Z,11.01
2022-08-07T04:14:55.382Z,11.01
2022-08-07T04:19:58.674Z,10.45
2022-08-07T04:25:03.045Z,10.48
2022-08-07T04:30:35.474Z,10.54
2022-08-07T04:35:38.109Z,11.17
2022-08-07T04:40:52.938Z,11.45
2022-08-07T04:46:12.506Z,10.96
2022-08-07T04:51:37.364Z,12.52
2022-08-07T04:58:12.861Z,12.29
2022-08-07T05:02:27.491Z,12.76
2022-08-07T05:07:48.191Z,11.80
2022-08-07T05:13:09.856Z,12.16
2022-08-07T05:18:29.655Z,12.05
2022-08-07T05:23:51.232Z,12.79
2022-08-07T05:28:56.016Z,12.99
2022-08-07T05:34:05.488Z,13.18
2022-08-07T05:40:05.819Z,13.83
2022-08-07T05:44:46.495Z,14.19
2022-08-07T05:49:53.398Z,14.42
2022-08-07T05:55:01.883Z,14.67
2022-08-07T06:00:16.652Z,14.94
2022-08-07T06:05:28.865Z,15.42
2022-08-07T06:10:37.598Z,15.68
2022-08-07T06:15:42.975Z,16.15
2022-08-07T06:22:16.968Z,17.24
2022-08-07T06:26:16.736Z,19.73
2022-08-07T06:31:18.806Z,22.49
2022-08-07T06:36:35.366Z,23.57
2022-08-07T06:41:59.165Z,21.95
2022-08-07T06:47:24.833Z,20.23
2022-08-07T06:52:36.752Z,20.33
2022-08-07T06:57:50.885Z,20.63
2022-08-07T07:03:01.005Z,23.98
2022-08-07T07:08:18.627Z,26.09
2022-08-07T07:13:55.638Z,26.10
2022-08-07T07:19:11.480Z,23.36
2022-08-07T07:24:27.014Z,22.80
2022-08-07T07:29:56.559Z,23.49
2022-08-07T07:34:59.235Z,24.73
2022-08-07T07:40:14.986Z,27.43
2022-08-07T07:45:22.786Z,28.14
2022-08-07T07:50:43.086Z,28.32
2022-08-07T07:55:54.978Z,28.73
2022-08-07T08:02:03.374Z,31.58
2022-08-07T08:06:26.742Z,33.32
2022-08-07T08:12:00.024Z,33.63
2022-08-07T08:16:52.153Z,35.36
2022-08-07T08:22:14.358Z,36.02
2022-08-07T08:27:21.805Z,29.74
2022-08-07T08:32:39.322Z,32.56
2022-08-07T08:38:01.447Z,34.05
2022-08-07T08:43:05.312Z,35.74
2022-08-07T08:48:28.289Z,33.64
2022-08-07T08:54:02.552Z,33.86
2022-08-07T08:59:29.210Z,32.90
2022-08-07T09:04:54.809Z,34.66
2022-08-07T09:10:21.070Z,32.18
2022-08-07T09:16:22.612Z,32.58
2022-08-07T09:21:13.925Z,36.03
2022-08-07T09:27:04.549Z,30.23
2022-08-07T09:32:26.295Z,33.93
2022-08-07T09:38:10.409Z,36.36
2022-08-07T09:44:03.631Z,34.48
2022-08-07T09:50:03.007Z,29.10
2022-08-07T09:54:44.120Z,29.92
2022-08-07T10:00:07.792Z,29.65
2022-08-07T10:05:58.160Z,26.33
2022-08-07T10:12:01.517Z,25.07
2022-08-07T10:18:00.399Z,24.92
2022-08-07T10:23:16.991Z,27.63
2022-08-07T10:28:24.849Z,32.05
2022-08-07T10:34:15.040Z,32.56
2022-08-07T10:39:41.447Z,30.98
2022-08-07T10:44:54.626Z,30.10
2022-08-07T10:50:10.166Z,32.91
2022-08-07T10:55:26.998Z,31.01
2022-08-07T11:01:11.713Z,33.66
2022-08-07T11:06:21.944Z,29.74
2022-08-07T11:11:35.986Z,32.35
2022-08-07T11:16:51.053Z,32.04
2022-08-07T11:22:26.485Z,33.42
2022-08-07T11:28:02.718Z,34.09
2022-08-07T11:33:17.559Z,34.94
2022-08-07T11:38:57.254Z,34.81
2022-08-07T11:44:18.593Z,30.75
2022-08-07T11:50:11.323Z,32.32
2022-08-07T11:55:18.712Z,31.10
2022-08-07T12:01:12.162Z,32.54
2022-08-07T12:06:37.173Z,33.15
2022-08-07T12:12:10.205Z,32.54
2022-08-07T12:17:19.699Z,28.87
2022-08-07T12:22:56.496Z,29.64
2022-08-07T12:28:09.646Z,31.94
2022-08-07T12:33:23.555Z,32.07
2022-08-07T12:38:42.615Z,31.83
2022-08-07T12:44:04.583Z,32.35
2022-08-07T12:49:52.982Z,31.87
2022-08-07T12:55:18.254Z,32.52
2022-08-07T13:00:32.804Z,32.59
2022-08-07T13:06:03.453Z,30.72
2022-08-07T13:12:02.456Z,30.34
2022-08-07T13:17:03.233Z,31.77
2022-08-07T13:22:29.840Z,31.12
2022-08-07T13:28:10.951Z,30.44
2022-08-07T13:34:31.338Z,30.24
2022-08-07T13:39:12.946Z,27.71
2022-08-07T13:44:37.158Z,27.48
2022-08-07T13:50:32.659Z,27.82
2022-08-07T13:55:25.486Z,26.21
2022-08-07T14:00:50.518Z,27.34
2022-08-07T14:05:57.429Z,26.90
2022-08-07T14:11:14.980Z,25.61
2022-08-07T14:16:23.297Z,25.89
2022-08-07T14:22:04.222Z,26.56
2022-08-07T14:28:11.750Z,26.82
2022-08-07T14:32:36.710Z,27.23
2022-08-07T14:37:44.868Z,26.59
2022-08-07T14:43:55.966Z,26.70
2022-08-07T14:48:37.133Z,26.04
2022-08-07T14:54:05.817Z,26.31
2022-08-07T14:59:13.872Z,26.37
2022-08-07T15:04:31.596Z,25.96
2022-08-07T15:15:07.431Z,26.38
2022-08-07T15:25:38.258Z,26.90
2022-08-07T15:31:05.051Z,26.55
2022-08-07T15:47:03.207Z,26.11
2022-08-07T15:52:10.701Z,25.80
2022-08-07T15:57:28.007Z,26.03
2022-08-07T16:02:46.675Z,26.08
2022-08-07T16:08:33.332Z,25.87
2022-08-07T16:13:59.685Z,25.73
2022-08-07T16:19:41.831Z,25.87
2022-08-07T16:24:55.479Z,25.06
2022-08-07T16:30:31.498Z,25.45
2022-08-07T16:35:58.320Z,25.73
2022-08-07T16:41:02.047Z,25.71
2022-08-07T16:47:05.764Z,25.43
2022-08-07T16:52:50.949Z,25.20
2022-08-07T16:58:01.996Z,25.05
2022-08-07T17:03:11.251Z,24.95
2022-08-07T17:08:57.458Z,24.86
2022-08-07T17:14:19.080Z,24.87
2022-08-07T17:20:02.087Z,24.73
2022-08-07T17:25:15.752Z,24.67
2022-08-07T17:30:20.495Z,24.50
2022-08-07T17:35:51.776Z,24.50
2022-08-07T17:40:56.196Z,24.37
2022-08-07T17:46:11.912Z,24.13
2022-08-07T17:51:59.776Z,24.10
2022-08-07T17:57:18.980Z,24.13
2022-08-07T18:02:40.019Z,23.83
2022-08-07T18:08:11.255Z,23.67
2022-08-07T18:13:40.528Z,23.50
2022-08-07T18:21:07.604Z,23.33
2022-08-07T18:24:33.862Z,23.02
2022-08-07T18:30:31.390Z,22.68
2022-08-07T18:35:59.474Z,22.41
2022-08-07T18:41:16.637Z,22.24
2022-08-07T18:46:25.567Z,21.75
2022-08-07T18:52:33.515Z,21.40
2022-08-07T18:57:30.579Z,21.19
2022-08-07T19:02:44.860Z,20.95
2022-08-07T19:07:57.514Z,20.51
2022-08-07T19:13:21.987Z,20.23
2022-08-07T19:18:46.501Z,20.20
2022-08-07T19:23:58.585Z,20.02
2022-08-07T19:31:02.069Z,20.01
2022-08-07T19:34:32.573Z,19.75
2022-08-07T19:39:56.159Z,19.54
2022-08-07T19:45:08.288Z,19.36
2022-08-07T19:50:43.829Z,19.26
2022-08-07T19:55:56.292Z,19.21
2022-08-07T20:00:57.453Z,18.73
2022-08-07T20:06:03.225Z,18.20
2022-08-07T20:11:10.485Z,18.38
2022-08-07T20:16:35.641Z,18.07
2022-08-07T20:21:47.386Z,17.71
2022-08-07T20:26:54.796Z,17.57
2022-08-07T20:31:59.938Z,17.68
2022-08-07T20:37:05.721Z,17.41
2022-08-07T20:42:11.745Z,17.27
2022-08-07T20:47:14.757Z,17.21
2022-08-07T20:52:21.041Z,17.52
2022-08-07T20:57:29.761Z,17.16
2022-08-07T21:02:58.640Z,16.85
2022-08-07T21:08:05.362Z,16.95
2022-08-07T21:13:13.126Z,16.54
2022-08-07T21:18:27.822Z,16.71
2022-08-07T21:23:50.090Z,16.62
2022-08-07T21:29:15.696Z,16.69
2022-08-07T21:34:31.849Z,16.63
2022-08-07T21:40:03.728Z,16.34
2022-08-07T21:46:10.079Z,16.15
2022-08-07T21:50:48.709Z,16.19
2022-08-07T21:56:16.565Z,15.87
2022-08-07T22:02:11.074Z,15.95
2022-08-07T22:07:58.084Z,16.04
2022-08-07T22:13:09.169Z,15.76
2022-08-07T22:18:19.296Z,16.10
2022-08-07T22:23:31.292Z,15.99
2022-08-07T22:29:00.218Z,15.72
2022-08-07T22:34:12.812Z,15.52
2022-08-07T22:39:53.452Z,15.30
2022-08-07T22:44:59.733Z,15.10
2022-08-07T22:50:33.372Z,14.87
2022-08-07T22:56:03.018Z,14.96
2022-08-07T23:02:00.417Z,14.89
2022-08-07T23:07:40.422Z,14.65
2022-08-07T23:12:56.459Z,14.65
2022-08-07T23:18:10.392Z,14.50
2022-08-07T23:24:05.935Z,14.51
2022-08-07T23:29:43.694Z,14.49
2022-08-07T23:35:06.347Z,14.33
2022-08-07T23:40:19.997Z,14.27
2022-08-07T23:46:01.741Z,14.26
2022-08-07T23:51:03.900Z,13.88
2022-08-07T23:56:42.732Z,13.86
